sensor_id;sensor_type;location;lat;lon;timestamp;temperature;humidity
48686;DHT22;34485;51.536;3.816;2023-07-08T00:00:21;19.70;88.80
48686;DHT22;34485;51.536;3.816;2023-07-08T00:02:47;19.60;90.10
48686;DHT22;34485;51.536;3.816;2023-07-08T00:05:15;19.50;90.60
48686;DHT22;34485;51.536;3.816;2023-07-08T00:07:41;19.40;91.10
48686;DHT22;34485;51.536;3.816;2023-07-08T00:10:25;19.30;91.30
48686;DHT22;34485;51.536;3.816;2023-07-08T00:12:53;19.10;91.90
48686;DHT22;34485;51.536;3.816;2023-07-08T00:15:22;19.10;92.40
48686;DHT22;34485;51.536;3.816;2023-07-08T00:17:49;19.00;93.10
48686;DHT22;34485;51.536;3.816;2023-07-08T00:20:31;18.90;93.60
48686;DHT22;34485;51.536;3.816;2023-07-08T00:22:57;18.80;94.20
48686;DHT22;34485;51.536;3.816;2023-07-08T00:25:27;18.80;94.50
48686;DHT22;34485;51.536;3.816;2023-07-08T00:27:52;18.70;94.80
48686;DHT22;34485;51.536;3.816;2023-07-08T00:32:45;18.60;94.80
48686;DHT22;34485;51.536;3.816;2023-07-08T00:35:11;18.60;94.80
48686;DHT22;34485;51.536;3.816;2023-07-08T00:37:37;18.50;94.80
48686;DHT22;34485;51.536;3.816;2023-07-08T00:40:16;18.50;94.90
48686;DHT22;34485;51.536;3.816;2023-07-08T00:42:44;18.50;94.60
48686;DHT22;34485;51.536;3.816;2023-07-08T00:45:18;18.50;94.80
48686;DHT22;34485;51.536;3.816;2023-07-08T00:47:46;18.40;94.70
48686;DHT22;34485;51.536;3.816;2023-07-08T00:50:13;18.40;94.90
48686;DHT22;34485;51.536;3.816;2023-07-08T00:52:40;18.40;95.40
48686;DHT22;34485;51.536;3.816;2023-07-08T00:55:08;18.30;95.70
48686;DHT22;34485;51.536;3.816;2023-07-08T00:57:38;18.20;96.10
48686;DHT22;34485;51.536;3.816;2023-07-08T01:00:11;18.20;96.50
48686;DHT22;34485;51.536;3.816;2023-07-08T01:02:42;18.10;96.90
48686;DHT22;34485;51.536;3.816;2023-07-08T01:05:15;18.10;97.20
48686;DHT22;34485;51.536;3.816;2023-07-08T01:07:44;18.00;97.30
48686;DHT22;34485;51.536;3.816;2023-07-08T01:10:15;18.00;97.50
48686;DHT22;34485;51.536;3.816;2023-07-08T01:12:49;17.90;97.70
48686;DHT22;34485;51.536;3.816;2023-07-08T01:15:17;17.90;97.70
48686;DHT22;34485;51.536;3.816;2023-07-08T01:17:43;17.90;97.60
48686;DHT22;34485;51.536;3.816;2023-07-08T01:20:10;17.90;97.00
48686;DHT22;34485;51.536;3.816;2023-07-08T01:22:41;17.90;95.70
48686;DHT22;34485;51.536;3.816;2023-07-08T01:25:08;17.90;95.40
48686;DHT22;34485;51.536;3.816;2023-07-08T01:27:37;17.90;95.30
48686;DHT22;34485;51.536;3.816;2023-07-08T01:30:05;17.80;96.30
48686;DHT22;34485;51.536;3.816;2023-07-08T01:32:34;17.60;97.70
48686;DHT22;34485;51.536;3.816;2023-07-08T01:35:02;17.40;97.80
48686;DHT22;34485;51.536;3.816;2023-07-08T01:37:37;17.30;98.30
48686;DHT22;34485;51.536;3.816;2023-07-08T01:40:29;17.20;98.80
48686;DHT22;34485;51.536;3.816;2023-07-08T01:42:56;17.10;99.20
48686;DHT22;34485;51.536;3.816;2023-07-08T01:45:24;17.20;99.40
48686;DHT22;34485;51.536;3.816;2023-07-08T01:48:11;17.20;99.30
48686;DHT22;34485;51.536;3.816;2023-07-08T01:51:04;17.30;98.70
48686;DHT22;34485;51.536;3.816;2023-07-08T01:55:58;17.60;96.80
48686;DHT22;34485;51.536;3.816;2023-07-08T01:58:23;17.70;96.40
48686;DHT22;34485;51.536;3.816;2023-07-08T02:00:50;17.80;95.50
48686;DHT22;34485;51.536;3.816;2023-07-08T02:03:16;17.90;95.00
48686;DHT22;34485;51.536;3.816;2023-07-08T02:05:41;18.00;95.00
48686;DHT22;34485;51.536;3.816;2023-07-08T02:08:07;18.00;95.20
48686;DHT22;34485;51.536;3.816;2023-07-08T02:10:33;17.90;95.40
48686;DHT22;34485;51.536;3.816;2023-07-08T02:12:58;17.90;95.60
48686;DHT22;34485;51.536;3.816;2023-07-08T02:15:25;17.80;96.00
48686;DHT22;34485;51.536;3.816;2023-07-08T02:17:51;17.80;96.40
48686;DHT22;34485;51.536;3.816;2023-07-08T02:20:16;17.80;96.70
48686;DHT22;34485;51.536;3.816;2023-07-08T02:22:42;17.80;96.60
48686;DHT22;34485;51.536;3.816;2023-07-08T02:25:08;17.90;96.30
48686;DHT22;34485;51.536;3.816;2023-07-08T02:27:37;17.90;96.00
48686;DHT22;34485;51.536;3.816;2023-07-08T02:30:04;18.00;95.50
48686;DHT22;34485;51.536;3.816;2023-07-08T02:32:30;18.10;94.80
48686;DHT22;34485;51.536;3.816;2023-07-08T02:34:59;18.10;94.20
48686;DHT22;34485;51.536;3.816;2023-07-08T02:37:25;18.20;94.10
48686;DHT22;34485;51.536;3.816;2023-07-08T02:39:51;18.20;94.00
48686;DHT22;34485;51.536;3.816;2023-07-08T02:42:17;18.10;93.90
48686;DHT22;34485;51.536;3.816;2023-07-08T02:44:42;18.10;94.00
48686;DHT22;34485;51.536;3.816;2023-07-08T02:47:08;18.10;94.00
48686;DHT22;34485;51.536;3.816;2023-07-08T02:49:34;18.00;94.30
48686;DHT22;34485;51.536;3.816;2023-07-08T02:51:59;17.80;94.70
48686;DHT22;34485;51.536;3.816;2023-07-08T02:54:25;17.70;95.30
48686;DHT22;34485;51.536;3.816;2023-07-08T02:56:50;17.60;95.70
48686;DHT22;34485;51.536;3.816;2023-07-08T02:59:16;17.40;96.30
48686;DHT22;34485;51.536;3.816;2023-07-08T03:01:41;17.40;96.80
48686;DHT22;34485;51.536;3.816;2023-07-08T03:04:08;17.30;97.10
48686;DHT22;34485;51.536;3.816;2023-07-08T03:06:39;17.30;97.20
48686;DHT22;34485;51.536;3.816;2023-07-08T03:09:05;17.30;97.20
48686;DHT22;34485;51.536;3.816;2023-07-08T03:11:31;17.40;97.20
48686;DHT22;34485;51.536;3.816;2023-07-08T03:13:57;17.40;97.30
48686;DHT22;34485;51.536;3.816;2023-07-08T03:16:22;17.30;97.30
48686;DHT22;34485;51.536;3.816;2023-07-08T03:18:48;17.40;97.40
48686;DHT22;34485;51.536;3.816;2023-07-08T03:21:15;17.40;97.30
48686;DHT22;34485;51.536;3.816;2023-07-08T03:23:41;17.50;97.10
48686;DHT22;34485;51.536;3.816;2023-07-08T03:26:09;17.50;96.90
48686;DHT22;34485;51.536;3.816;2023-07-08T03:28:37;17.60;96.60
48686;DHT22;34485;51.536;3.816;2023-07-08T03:31:03;17.60;96.40
48686;DHT22;34485;51.536;3.816;2023-07-08T03:33:29;17.60;96.30
48686;DHT22;34485;51.536;3.816;2023-07-08T03:35:55;17.60;96.10
48686;DHT22;34485;51.536;3.816;2023-07-08T03:38:20;17.60;96.10
48686;DHT22;34485;51.536;3.816;2023-07-08T03:40:46;17.60;95.90
48686;DHT22;34485;51.536;3.816;2023-07-08T03:43:11;17.60;96.00
48686;DHT22;34485;51.536;3.816;2023-07-08T03:45:37;17.60;96.20
48686;DHT22;34485;51.536;3.816;2023-07-08T03:48:03;17.50;96.20
48686;DHT22;34485;51.536;3.816;2023-07-08T03:50:28;17.50;96.30
48686;DHT22;34485;51.536;3.816;2023-07-08T03:52:55;17.50;96.40
48686;DHT22;34485;51.536;3.816;2023-07-08T03:55:21;17.40;96.60
48686;DHT22;34485;51.536;3.816;2023-07-08T03:57:47;17.40;96.80
48686;DHT22;34485;51.536;3.816;2023-07-08T04:00:13;17.40;96.90
48686;DHT22;34485;51.536;3.816;2023-07-08T04:02:41;17.40;96.90
48686;DHT22;34485;51.536;3.816;2023-07-08T04:05:13;17.40;97.00
48686;DHT22;34485;51.536;3.816;2023-07-08T04:07:39;17.30;97.10
48686;DHT22;34485;51.536;3.816;2023-07-08T04:10:05;17.30;97.80
48686;DHT22;34485;51.536;3.816;2023-07-08T04:12:31;17.20;97.60
48686;DHT22;34485;51.536;3.816;2023-07-08T04:14:56;17.30;97.60
48686;DHT22;34485;51.536;3.816;2023-07-08T04:17:22;17.40;97.80
48686;DHT22;34485;51.536;3.816;2023-07-08T04:19:49;17.40;97.70
48686;DHT22;34485;51.536;3.816;2023-07-08T04:22:15;17.50;97.80
48686;DHT22;34485;51.536;3.816;2023-07-08T04:24:40;17.60;98.00
48686;DHT22;34485;51.536;3.816;2023-07-08T04:27:15;17.80;98.10
48686;DHT22;34485;51.536;3.816;2023-07-08T04:29:41;17.90;98.00
48686;DHT22;34485;51.536;3.816;2023-07-08T04:32:07;18.00;97.90
48686;DHT22;34485;51.536;3.816;2023-07-08T04:34:33;18.10;97.90
48686;DHT22;34485;51.536;3.816;2023-07-08T04:36:58;18.10;97.90
48686;DHT22;34485;51.536;3.816;2023-07-08T04:39:24;18.20;98.10
48686;DHT22;34485;51.536;3.816;2023-07-08T04:41:50;18.20;98.30
48686;DHT22;34485;51.536;3.816;2023-07-08T04:44:15;18.30;98.60
48686;DHT22;34485;51.536;3.816;2023-07-08T04:46:57;18.40;98.60
48686;DHT22;34485;51.536;3.816;2023-07-08T04:49:24;18.60;98.20
48686;DHT22;34485;51.536;3.816;2023-07-08T04:51:53;18.70;96.70
48686;DHT22;34485;51.536;3.816;2023-07-08T04:54:19;18.90;96.30
48686;DHT22;34485;51.536;3.816;2023-07-08T04:56:47;19.00;95.40
48686;DHT22;34485;51.536;3.816;2023-07-08T04:59:20;19.10;94.60
48686;DHT22;34485;51.536;3.816;2023-07-08T05:01:46;19.20;94.10
48686;DHT22;34485;51.536;3.816;2023-07-08T05:04:16;19.30;93.70
48686;DHT22;34485;51.536;3.816;2023-07-08T05:06:43;19.40;93.50
48686;DHT22;34485;51.536;3.816;2023-07-08T05:11:35;19.50;92.50
48686;DHT22;34485;51.536;3.816;2023-07-08T05:14:02;19.50;92.60
48686;DHT22;34485;51.536;3.816;2023-07-08T05:16:28;19.60;92.60
48686;DHT22;34485;51.536;3.816;2023-07-08T05:18:54;19.70;92.40
48686;DHT22;34485;51.536;3.816;2023-07-08T05:21:20;19.80;92.30
48686;DHT22;34485;51.536;3.816;2023-07-08T05:23:47;19.90;93.10
48686;DHT22;34485;51.536;3.816;2023-07-08T05:26:15;19.90;92.80
48686;DHT22;34485;51.536;3.816;2023-07-08T05:28:41;20.00;93.00
48686;DHT22;34485;51.536;3.816;2023-07-08T05:31:06;20.10;92.80
48686;DHT22;34485;51.536;3.816;2023-07-08T05:33:33;20.20;92.40
48686;DHT22;34485;51.536;3.816;2023-07-08T05:35:59;20.20;91.70
48686;DHT22;34485;51.536;3.816;2023-07-08T05:38:25;20.30;90.90
48686;DHT22;34485;51.536;3.816;2023-07-08T05:40:53;20.30;91.30
48686;DHT22;34485;51.536;3.816;2023-07-08T05:43:20;20.30;90.90
48686;DHT22;34485;51.536;3.816;2023-07-08T05:45:45;20.30;91.00
48686;DHT22;34485;51.536;3.816;2023-07-08T05:48:11;20.40;90.30
48686;DHT22;34485;51.536;3.816;2023-07-08T05:50:38;20.40;90.30
48686;DHT22;34485;51.536;3.816;2023-07-08T05:53:04;20.40;90.10
48686;DHT22;34485;51.536;3.816;2023-07-08T05:55:31;20.40;90.40
48686;DHT22;34485;51.536;3.816;2023-07-08T05:57:57;20.40;91.00
48686;DHT22;34485;51.536;3.816;2023-07-08T06:00:22;20.50;91.30
48686;DHT22;34485;51.536;3.816;2023-07-08T06:02:48;20.60;90.70
48686;DHT22;34485;51.536;3.816;2023-07-08T06:05:14;20.60;90.20
48686;DHT22;34485;51.536;3.816;2023-07-08T06:07:39;20.70;90.40
48686;DHT22;34485;51.536;3.816;2023-07-08T06:10:05;20.80;90.20
48686;DHT22;34485;51.536;3.816;2023-07-08T06:12:31;20.80;88.80
48686;DHT22;34485;51.536;3.816;2023-07-08T06:14:57;20.90;88.50
48686;DHT22;34485;51.536;3.816;2023-07-08T06:17:22;20.90;86.90
48686;DHT22;34485;51.536;3.816;2023-07-08T06:19:48;20.90;87.30
48686;DHT22;34485;51.536;3.816;2023-07-08T06:22:14;20.90;86.10
48686;DHT22;34485;51.536;3.816;2023-07-08T06:24:40;20.90;86.90
48686;DHT22;34485;51.536;3.816;2023-07-08T06:27:06;20.90;86.70
48686;DHT22;34485;51.536;3.816;2023-07-08T06:29:33;21.00;85.50
48686;DHT22;34485;51.536;3.816;2023-07-08T06:31:59;21.00;87.20
48686;DHT22;34485;51.536;3.816;2023-07-08T06:34:24;21.20;87.70
48686;DHT22;34485;51.536;3.816;2023-07-08T06:36:50;21.30;88.00
48686;DHT22;34485;51.536;3.816;2023-07-08T06:39:16;21.30;84.80
48686;DHT22;34485;51.536;3.816;2023-07-08T06:41:43;21.30;85.80
48686;DHT22;34485;51.536;3.816;2023-07-08T06:44:08;21.30;85.20
48686;DHT22;34485;51.536;3.816;2023-07-08T06:46:34;21.40;84.80
48686;DHT22;34485;51.536;3.816;2023-07-08T06:49:00;21.40;86.10
48686;DHT22;34485;51.536;3.816;2023-07-08T06:51:26;21.50;86.00
48686;DHT22;34485;51.536;3.816;2023-07-08T06:53:51;21.60;85.70
48686;DHT22;34485;51.536;3.816;2023-07-08T06:56:17;21.70;86.60
48686;DHT22;34485;51.536;3.816;2023-07-08T06:58:43;21.80;84.50
48686;DHT22;34485;51.536;3.816;2023-07-08T07:01:08;21.90;83.40
48686;DHT22;34485;51.536;3.816;2023-07-08T07:03:34;22.00;83.50
48686;DHT22;34485;51.536;3.816;2023-07-08T07:05:59;22.10;82.20
48686;DHT22;34485;51.536;3.816;2023-07-08T07:08:25;22.20;82.40
48686;DHT22;34485;51.536;3.816;2023-07-08T07:10:51;22.40;81.70
48686;DHT22;34485;51.536;3.816;2023-07-08T07:13:16;22.50;81.80
48686;DHT22;34485;51.536;3.816;2023-07-08T07:15:42;22.70;81.40
48686;DHT22;34485;51.536;3.816;2023-07-08T07:20:36;23.10;78.40
48686;DHT22;34485;51.536;3.816;2023-07-08T07:23:02;23.40;77.70
48686;DHT22;34485;51.536;3.816;2023-07-08T07:35:13;26.40;66.70
48686;DHT22;34485;51.536;3.816;2023-07-08T07:37:40;27.10;64.30
48686;DHT22;34485;51.536;3.816;2023-07-08T07:42:39;28.30;58.00
48686;DHT22;34485;51.536;3.816;2023-07-08T07:45:05;28.70;56.50
48686;DHT22;34485;51.536;3.816;2023-07-08T07:47:31;28.40;56.90
48686;DHT22;34485;51.536;3.816;2023-07-08T07:49:57;28.40;55.30
48686;DHT22;34485;51.536;3.816;2023-07-08T07:52:24;28.80;55.90
48686;DHT22;34485;51.536;3.816;2023-07-08T07:54:53;29.40;55.00
48686;DHT22;34485;51.536;3.816;2023-07-08T07:57:19;29.10;56.20
48686;DHT22;34485;51.536;3.816;2023-07-08T07:59:46;29.60;54.90
48686;DHT22;34485;51.536;3.816;2023-07-08T08:02:11;29.60;56.30
48686;DHT22;34485;51.536;3.816;2023-07-08T08:04:37;29.40;53.30
48686;DHT22;34485;51.536;3.816;2023-07-08T08:07:03;29.40;55.40
48686;DHT22;34485;51.536;3.816;2023-07-08T08:11:55;29.10;56.60
48686;DHT22;34485;51.536;3.816;2023-07-08T08:14:21;29.20;57.00
48686;DHT22;34485;51.536;3.816;2023-07-08T08:16:47;29.00;60.00
48686;DHT22;34485;51.536;3.816;2023-07-08T08:19:12;29.40;57.60
48686;DHT22;34485;51.536;3.816;2023-07-08T08:21:38;29.70;55.70
48686;DHT22;34485;51.536;3.816;2023-07-08T08:24:04;30.10;56.30
48686;DHT22;34485;51.536;3.816;2023-07-08T08:26:30;30.60;55.00
48686;DHT22;34485;51.536;3.816;2023-07-08T08:28:56;31.30;53.50
48686;DHT22;34485;51.536;3.816;2023-07-08T08:31:21;31.50;50.90
48686;DHT22;34485;51.536;3.816;2023-07-08T08:33:47;31.70;51.90
48686;DHT22;34485;51.536;3.816;2023-07-08T08:36:13;32.10;49.80
48686;DHT22;34485;51.536;3.816;2023-07-08T08:38:38;32.40;49.40
48686;DHT22;34485;51.536;3.816;2023-07-08T08:41:11;32.40;47.70
48686;DHT22;34485;51.536;3.816;2023-07-08T08:43:39;32.30;48.30
48686;DHT22;34485;51.536;3.816;2023-07-08T08:48:59;31.80;49.50
48686;DHT22;34485;51.536;3.816;2023-07-08T08:51:30;31.80;49.00
48686;DHT22;34485;51.536;3.816;2023-07-08T08:53:57;32.20;48.60
48686;DHT22;34485;51.536;3.816;2023-07-08T08:56:29;32.00;47.20
48686;DHT22;34485;51.536;3.816;2023-07-08T08:59:07;32.20;47.80
48686;DHT22;34485;51.536;3.816;2023-07-08T09:01:38;32.40;47.90
48686;DHT22;34485;51.536;3.816;2023-07-08T09:04:11;32.40;48.20
48686;DHT22;34485;51.536;3.816;2023-07-08T09:06:39;32.50;47.50
48686;DHT22;34485;51.536;3.816;2023-07-08T09:09:24;32.80;46.00
48686;DHT22;34485;51.536;3.816;2023-07-08T09:12:01;33.00;45.60
48686;DHT22;34485;51.536;3.816;2023-07-08T09:14:30;33.40;45.30
48686;DHT22;34485;51.536;3.816;2023-07-08T09:17:16;33.40;43.70
48686;DHT22;34485;51.536;3.816;2023-07-08T09:20:06;33.80;44.30
48686;DHT22;34485;51.536;3.816;2023-07-08T09:25:35;34.60;43.40
48686;DHT22;34485;51.536;3.816;2023-07-08T09:28:02;34.80;41.50
48686;DHT22;34485;51.536;3.816;2023-07-08T09:30:28;36.20;38.40
48686;DHT22;34485;51.536;3.816;2023-07-08T09:32:57;36.20;37.80
48686;DHT22;34485;51.536;3.816;2023-07-08T09:35:28;36.80;36.50
48686;DHT22;34485;51.536;3.816;2023-07-08T09:37:55;37.30;34.40
48686;DHT22;34485;51.536;3.816;2023-07-08T09:43:26;39.10;32.50
48686;DHT22;34485;51.536;3.816;2023-07-08T09:48:33;40.30;29.90
48686;DHT22;34485;51.536;3.816;2023-07-08T09:50:59;40.40;31.60
48686;DHT22;34485;51.536;3.816;2023-07-08T09:55:58;39.00;31.30
48686;DHT22;34485;51.536;3.816;2023-07-08T09:58:31;38.60;32.20
48686;DHT22;34485;51.536;3.816;2023-07-08T10:01:01;38.90;33.00
48686;DHT22;34485;51.536;3.816;2023-07-08T10:03:33;39.70;30.90
48686;DHT22;34485;51.536;3.816;2023-07-08T10:06:03;40.50;29.50
48686;DHT22;34485;51.536;3.816;2023-07-08T10:08:40;41.00;29.20
48686;DHT22;34485;51.536;3.816;2023-07-08T10:11:30;41.90;28.30
48686;DHT22;34485;51.536;3.816;2023-07-08T10:14:01;42.00;28.70
48686;DHT22;34485;51.536;3.816;2023-07-08T10:16:30;41.70;28.50
48686;DHT22;34485;51.536;3.816;2023-07-08T10:18:57;41.90;29.20
48686;DHT22;34485;51.536;3.816;2023-07-08T10:27:17;39.80;31.20
48686;DHT22;34485;51.536;3.816;2023-07-08T10:35:28;39.30;29.70
48686;DHT22;34485;51.536;3.816;2023-07-08T10:40:45;39.20;30.30
48686;DHT22;34485;51.536;3.816;2023-07-08T10:46:27;39.50;30.80
48686;DHT22;34485;51.536;3.816;2023-07-08T10:59:45;35.90;32.40
48686;DHT22;34485;51.536;3.816;2023-07-08T11:02:26;35.60;33.00
48686;DHT22;34485;51.536;3.816;2023-07-08T11:05:04;35.60;32.90
48686;DHT22;34485;51.536;3.816;2023-07-08T11:07:44;35.70;32.90
48686;DHT22;34485;51.536;3.816;2023-07-08T11:10:28;35.90;32.10
48686;DHT22;34485;51.536;3.816;2023-07-08T11:13:10;35.90;33.10
48686;DHT22;34485;51.536;3.816;2023-07-08T11:15:43;35.70;33.00
48686;DHT22;34485;51.536;3.816;2023-07-08T11:19:03;35.50;33.80
48686;DHT22;34485;51.536;3.816;2023-07-08T11:21:24;35.50;35.40
48686;DHT22;34485;51.536;3.816;2023-07-08T11:26:47;35.00;36.70
48686;DHT22;34485;51.536;3.816;2023-07-08T11:32:12;35.70;37.10
48686;DHT22;34485;51.536;3.816;2023-07-08T11:34:40;35.60;36.40
48686;DHT22;34485;51.536;3.816;2023-07-08T11:37:07;35.10;38.00
48686;DHT22;34485;51.536;3.816;2023-07-08T11:39:38;35.10;36.60
48686;DHT22;34485;51.536;3.816;2023-07-08T11:44:46;34.70;39.30
48686;DHT22;34485;51.536;3.816;2023-07-08T11:47:20;34.80;41.70
48686;DHT22;34485;51.536;3.816;2023-07-08T11:49:48;34.50;39.10
48686;DHT22;34485;51.536;3.816;2023-07-08T11:52:18;34.20;40.00
48686;DHT22;34485;51.536;3.816;2023-07-08T11:54:48;34.10;41.80
48686;DHT22;34485;51.536;3.816;2023-07-08T11:57:36;34.00;40.10
48686;DHT22;34485;51.536;3.816;2023-07-08T12:00:19;33.70;39.90
48686;DHT22;34485;51.536;3.816;2023-07-08T12:02:54;33.50;39.50
48686;DHT22;34485;51.536;3.816;2023-07-08T12:05:35;33.40;40.40
48686;DHT22;34485;51.536;3.816;2023-07-08T12:08:03;33.10;40.20
48686;DHT22;34485;51.536;3.816;2023-07-08T12:10:51;33.00;39.90
48686;DHT22;34485;51.536;3.816;2023-07-08T12:13:21;33.00;41.30
48686;DHT22;34485;51.536;3.816;2023-07-08T12:15:47;33.00;40.40
48686;DHT22;34485;51.536;3.816;2023-07-08T12:18:34;32.90;39.30
48686;DHT22;34485;51.536;3.816;2023-07-08T12:21:02;32.90;39.30
48686;DHT22;34485;51.536;3.816;2023-07-08T12:23:29;32.90;39.80
48686;DHT22;34485;51.536;3.816;2023-07-08T12:25:56;32.80;39.60
48686;DHT22;34485;51.536;3.816;2023-07-08T12:28:23;32.80;43.60
48686;DHT22;34485;51.536;3.816;2023-07-08T12:30:50;32.90;45.20
48686;DHT22;34485;51.536;3.816;2023-07-08T12:35:52;32.80;43.80
48686;DHT22;34485;51.536;3.816;2023-07-08T12:43:44;33.10;37.10
48686;DHT22;34485;51.536;3.816;2023-07-08T12:46:18;33.00;40.20
48686;DHT22;34485;51.536;3.816;2023-07-08T12:49:02;32.90;42.90
48686;DHT22;34485;51.536;3.816;2023-07-08T12:51:33;32.90;43.60
48686;DHT22;34485;51.536;3.816;2023-07-08T12:54:02;32.70;43.40
48686;DHT22;34485;51.536;3.816;2023-07-08T12:56:28;32.60;44.00
48686;DHT22;34485;51.536;3.816;2023-07-08T12:58:56;32.70;41.30
48686;DHT22;34485;51.536;3.816;2023-07-08T13:01:25;32.70;41.80
48686;DHT22;34485;51.536;3.816;2023-07-08T13:03:55;32.90;41.70
48686;DHT22;34485;51.536;3.816;2023-07-08T13:06:25;33.00;40.90
48686;DHT22;34485;51.536;3.816;2023-07-08T13:08:51;33.00;39.30
48686;DHT22;34485;51.536;3.816;2023-07-08T13:11:20;32.90;39.20
48686;DHT22;34485;51.536;3.816;2023-07-08T13:13:53;32.60;41.50
48686;DHT22;34485;51.536;3.816;2023-07-08T13:16:19;32.40;41.10
48686;DHT22;34485;51.536;3.816;2023-07-08T13:21:14;32.60;40.90
48686;DHT22;34485;51.536;3.816;2023-07-08T13:23:41;32.60;42.90
48686;DHT22;34485;51.536;3.816;2023-07-08T13:26:15;32.60;43.10
48686;DHT22;34485;51.536;3.816;2023-07-08T13:28:42;32.60;45.20
48686;DHT22;34485;51.536;3.816;2023-07-08T13:31:19;32.70;45.60
48686;DHT22;34485;51.536;3.816;2023-07-08T13:33:47;32.60;46.90
48686;DHT22;34485;51.536;3.816;2023-07-08T13:36:15;32.60;47.40
48686;DHT22;34485;51.536;3.816;2023-07-08T13:38:42;32.30;46.50
48686;DHT22;34485;51.536;3.816;2023-07-08T13:41:08;32.00;48.60
48686;DHT22;34485;51.536;3.816;2023-07-08T13:43:37;31.90;52.90
48686;DHT22;34485;51.536;3.816;2023-07-08T13:46:04;31.90;51.90
48686;DHT22;34485;51.536;3.816;2023-07-08T13:48:41;31.90;53.20
48686;DHT22;34485;51.536;3.816;2023-07-08T13:51:18;31.80;52.20
48686;DHT22;34485;51.536;3.816;2023-07-08T13:53:48;31.90;52.70
48686;DHT22;34485;51.536;3.816;2023-07-08T13:56:33;32.00;51.20
48686;DHT22;34485;51.536;3.816;2023-07-08T13:59:08;31.80;51.50
48686;DHT22;34485;51.536;3.816;2023-07-08T14:01:38;31.50;54.10
48686;DHT22;34485;51.536;3.816;2023-07-08T14:04:05;31.30;55.20
48686;DHT22;34485;51.536;3.816;2023-07-08T14:06:37;31.00;57.00
48686;DHT22;34485;51.536;3.816;2023-07-08T14:09:21;30.80;58.70
48686;DHT22;34485;51.536;3.816;2023-07-08T14:11:48;30.70;60.20
48686;DHT22;34485;51.536;3.816;2023-07-08T14:14:15;30.50;60.90
48686;DHT22;34485;51.536;3.816;2023-07-08T14:16:51;30.40;61.70
48686;DHT22;34485;51.536;3.816;2023-07-08T14:19:26;30.10;61.70
48686;DHT22;34485;51.536;3.816;2023-07-08T14:21:58;29.90;62.70
48686;DHT22;34485;51.536;3.816;2023-07-08T14:24:24;29.70;63.90
48686;DHT22;34485;51.536;3.816;2023-07-08T14:26:51;29.50;63.70
48686;DHT22;34485;51.536;3.816;2023-07-08T14:29:17;29.40;63.60
48686;DHT22;34485;51.536;3.816;2023-07-08T14:31:43;29.10;64.30
48686;DHT22;34485;51.536;3.816;2023-07-08T14:34:12;28.90;64.00
48686;DHT22;34485;51.536;3.816;2023-07-08T14:36:38;28.80;64.60
48686;DHT22;34485;51.536;3.816;2023-07-08T14:39:15;28.70;65.40
48686;DHT22;34485;51.536;3.816;2023-07-08T14:41:41;28.50;66.40
48686;DHT22;34485;51.536;3.816;2023-07-08T14:44:21;28.40;66.70
48686;DHT22;34485;51.536;3.816;2023-07-08T14:46:47;28.20;67.60
48686;DHT22;34485;51.536;3.816;2023-07-08T14:49:17;28.00;68.00
48686;DHT22;34485;51.536;3.816;2023-07-08T14:51:42;27.90;67.70
48686;DHT22;34485;51.536;3.816;2023-07-08T14:54:08;27.80;68.00
48686;DHT22;34485;51.536;3.816;2023-07-08T14:56:34;27.70;69.70
48686;DHT22;34485;51.536;3.816;2023-07-08T14:58:59;27.80;69.40
48686;DHT22;34485;51.536;3.816;2023-07-08T15:01:27;27.90;69.00
48686;DHT22;34485;51.536;3.816;2023-07-08T15:03:55;28.20;67.40
48686;DHT22;34485;51.536;3.816;2023-07-08T15:06:21;28.20;67.20
48686;DHT22;34485;51.536;3.816;2023-07-08T15:08:53;28.30;67.50
48686;DHT22;34485;51.536;3.816;2023-07-08T15:11:20;28.40;66.50
48686;DHT22;34485;51.536;3.816;2023-07-08T15:13:45;28.60;67.00
48686;DHT22;34485;51.536;3.816;2023-07-08T15:16:14;28.70;66.60
48686;DHT22;34485;51.536;3.816;2023-07-08T15:18:41;28.90;67.30
48686;DHT22;34485;51.536;3.816;2023-07-08T15:21:13;29.10;65.70
48686;DHT22;34485;51.536;3.816;2023-07-08T15:23:40;29.20;65.80
48686;DHT22;34485;51.536;3.816;2023-07-08T15:26:08;29.30;64.90
48686;DHT22;34485;51.536;3.816;2023-07-08T15:28:40;29.20;65.10
48686;DHT22;34485;51.536;3.816;2023-07-08T15:31:09;28.90;65.50
48686;DHT22;34485;51.536;3.816;2023-07-08T15:33:36;28.80;65.50
48686;DHT22;34485;51.536;3.816;2023-07-08T15:36:02;28.90;67.20
48686;DHT22;34485;51.536;3.816;2023-07-08T15:38:28;29.00;66.50
48686;DHT22;34485;51.536;3.816;2023-07-08T15:40:53;29.20;66.40
48686;DHT22;34485;51.536;3.816;2023-07-08T15:43:19;29.20;66.00
48686;DHT22;34485;51.536;3.816;2023-07-08T15:45:45;29.30;65.80
48686;DHT22;34485;51.536;3.816;2023-07-08T15:48:13;29.40;65.80
48686;DHT22;34485;51.536;3.816;2023-07-08T15:50:39;29.40;65.20
48686;DHT22;34485;51.536;3.816;2023-07-08T15:53:06;29.40;63.10
48686;DHT22;34485;51.536;3.816;2023-07-08T15:55:36;29.30;63.10
48686;DHT22;34485;51.536;3.816;2023-07-08T15:58:34;29.20;62.10
48686;DHT22;34485;51.536;3.816;2023-07-08T16:01:01;29.20;63.40
48686;DHT22;34485;51.536;3.816;2023-07-08T16:03:30;29.20;60.90
48686;DHT22;34485;51.536;3.816;2023-07-08T16:05:57;29.30;60.40
48686;DHT22;34485;51.536;3.816;2023-07-08T16:08:23;29.30;61.40
48686;DHT22;34485;51.536;3.816;2023-07-08T16:11:15;29.50;62.20
48686;DHT22;34485;51.536;3.816;2023-07-08T16:13:42;29.60;61.60
48686;DHT22;34485;51.536;3.816;2023-07-08T16:16:12;29.80;59.40
48686;DHT22;34485;51.536;3.816;2023-07-08T16:18:38;29.80;60.30
48686;DHT22;34485;51.536;3.816;2023-07-08T16:21:05;29.80;60.10
48686;DHT22;34485;51.536;3.816;2023-07-08T16:23:30;29.70;63.40
48686;DHT22;34485;51.536;3.816;2023-07-08T16:25:56;29.60;62.20
48686;DHT22;34485;51.536;3.816;2023-07-08T16:33:40;29.30;64.30
48686;DHT22;34485;51.536;3.816;2023-07-08T16:36:20;29.10;63.60
48686;DHT22;34485;51.536;3.816;2023-07-08T16:38:47;29.00;65.70
48686;DHT22;34485;51.536;3.816;2023-07-08T16:41:17;29.00;65.20
48686;DHT22;34485;51.536;3.816;2023-07-08T16:43:42;29.00;64.60
48686;DHT22;34485;51.536;3.816;2023-07-08T16:46:12;29.10;64.90
48686;DHT22;34485;51.536;3.816;2023-07-08T16:48:39;29.10;66.10
48686;DHT22;34485;51.536;3.816;2023-07-08T16:54:14;29.20;65.80
48686;DHT22;34485;51.536;3.816;2023-07-08T16:56:41;29.10;65.50
48686;DHT22;34485;51.536;3.816;2023-07-08T16:59:07;29.10;65.60
48686;DHT22;34485;51.536;3.816;2023-07-08T17:01:32;29.10;66.00
48686;DHT22;34485;51.536;3.816;2023-07-08T17:03:58;29.10;66.20
48686;DHT22;34485;51.536;3.816;2023-07-08T17:06:24;29.10;64.20
48686;DHT22;34485;51.536;3.816;2023-07-08T17:08:50;28.90;64.00
48686;DHT22;34485;51.536;3.816;2023-07-08T17:11:16;28.80;63.80
48686;DHT22;34485;51.536;3.816;2023-07-08T17:13:42;28.70;64.30